Fleet, Kentucky
Current Conditions -  °F | °C
As of 12:15 PM on Wednesday 28 Jan 2015 (Local Time) from KGLW Reporting Station
Clear Clear  
Wind Chill: 35°   Ceiling: Unl
Heat Index: 39°   Visibility: 10mi
Dew Point: 14°   Wind: 6mph
Humidity: 35%   Direction: 140°SE
Pressure: 30.29"   Gusts: NA
Location:  36.6549°N, 85.8315°W
Report Text: KGLW 281815Z AUTO 14005KT 10SM CLR 04/M10 A3029 RMK AO2 T00391102
Loading
Personal Weather Stations






























Interactive Weather Map New forecast layout! Learn more

10-Day Weather Forecast

Advertisements
Track Severe Weather on mobile